createdAt,value
2022-08-24T00:00:16.913Z,21.60
2022-08-24T00:02:45.120Z,21.60
2022-08-24T00:05:14.960Z,21.60
2022-08-24T00:07:43.410Z,21.50
2022-08-24T00:10:13.473Z,21.50
2022-08-24T00:12:42.039Z,21.50
2022-08-24T00:15:11.853Z,21.40
2022-08-24T00:17:41.371Z,21.30
2022-08-24T00:20:12.167Z,21.30
2022-08-24T00:22:41.195Z,21.20
2022-08-24T00:25:11.163Z,21.20
2022-08-24T00:27:39.911Z,21.20
2022-08-24T00:30:11.722Z,21.20
2022-08-24T00:32:41.146Z,21.20
2022-08-24T00:35:10.526Z,21.10
2022-08-24T00:37:38.830Z,21.10
2022-08-24T00:40:11.662Z,21.00
2022-08-24T00:42:40.699Z,21.00
2022-08-24T00:45:12.312Z,21.00
2022-08-24T00:47:47.927Z,20.90
2022-08-24T00:50:22.033Z,20.90
2022-08-24T00:52:55.459Z,20.80
2022-08-24T00:55:33.419Z,20.80
2022-08-24T00:58:05.195Z,20.80
2022-08-24T01:00:41.335Z,20.80
2022-08-24T01:03:15.436Z,20.70
2022-08-24T01:05:44.268Z,20.70
2022-08-24T01:08:14.446Z,20.70
2022-08-24T01:10:46.850Z,20.70
2022-08-24T01:13:15.987Z,20.60
2022-08-24T01:15:48.813Z,20.60
2022-08-24T01:18:39.591Z,20.50
2022-08-24T01:21:13.296Z,20.50
2022-08-24T01:23:44.742Z,20.50
2022-08-24T01:26:17.579Z,20.50
2022-08-24T01:28:49.805Z,20.50
2022-08-24T01:31:22.250Z,20.40
2022-08-24T01:33:51.822Z,20.40
2022-08-24T01:36:32.067Z,20.40
2022-08-24T01:39:07.009Z,20.30
2022-08-24T01:41:35.175Z,20.30
2022-08-24T01:44:03.348Z,20.30
2022-08-24T01:46:31.580Z,20.30
2022-08-24T01:49:00.276Z,20.30
2022-08-24T01:51:31.957Z,20.20
2022-08-24T01:54:02.905Z,20.20
2022-08-24T01:56:31.217Z,20.20
2022-08-24T01:59:01.626Z,20.20
2022-08-24T02:01:31.390Z,20.20
2022-08-24T02:04:02.117Z,20.10
2022-08-24T02:06:30.227Z,20.20
2022-08-24T02:08:58.376Z,20.10
2022-08-24T02:11:28.756Z,20.10
2022-08-24T02:13:56.834Z,20.10
2022-08-24T02:16:25.573Z,20.00
2022-08-24T02:18:53.885Z,20.00
2022-08-24T02:21:22.247Z,20.00
2022-08-24T02:23:50.426Z,19.90
2022-08-24T02:26:18.688Z,19.90
2022-08-24T02:28:48.116Z,19.90
2022-08-24T02:31:16.700Z,19.90
2022-08-24T02:33:44.896Z,19.90
2022-08-24T02:36:26.159Z,19.90
2022-08-24T02:38:54.938Z,19.90
2022-08-24T02:41:25.738Z,19.80
2022-08-24T02:43:56.259Z,19.80
2022-08-24T02:46:27.160Z,19.80
2022-08-24T02:49:03.593Z,19.80
2022-08-24T02:51:44.150Z,19.70
2022-08-24T02:54:17.403Z,19.70
2022-08-24T02:56:45.486Z,19.70
2022-08-24T02:59:15.454Z,19.60
2022-08-24T03:07:14.328Z,19.60
2022-08-24T03:09:42.360Z,19.60
2022-08-24T03:12:10.528Z,19.60
2022-08-24T03:14:40.885Z,19.60
2022-08-24T03:17:08.969Z,19.50
2022-08-24T03:19:37.036Z,19.50
2022-08-24T03:22:05.190Z,19.50
2022-08-24T03:24:33.680Z,19.40
2022-08-24T03:27:01.775Z,19.40
2022-08-24T03:29:33.740Z,19.40
2022-08-24T03:32:04.773Z,19.40
2022-08-24T03:34:32.939Z,19.40
2022-08-24T03:37:00.999Z,19.40
2022-08-24T03:39:29.352Z,19.40
2022-08-24T03:41:57.776Z,19.30
2022-08-24T03:44:26.237Z,19.30
2022-08-24T03:46:54.921Z,19.30
2022-08-24T03:49:24.852Z,19.30
2022-08-24T03:51:53.097Z,19.30
2022-08-24T03:54:21.193Z,19.30
2022-08-24T03:56:49.257Z,19.20
2022-08-24T03:59:19.961Z,19.20
2022-08-24T04:01:48.286Z,19.10
2022-08-24T04:04:16.395Z,19.10
2022-08-24T04:06:46.931Z,19.00
2022-08-24T04:09:15.138Z,19.00
2022-08-24T04:11:46.043Z,19.00
2022-08-24T04:14:26.935Z,19.00
2022-08-24T04:16:57.817Z,19.00
2022-08-24T04:19:26.572Z,18.90
2022-08-24T04:21:58.670Z,18.90
2022-08-24T04:24:27.669Z,18.90
2022-08-24T04:26:55.769Z,18.90
2022-08-24T04:29:23.873Z,18.90
2022-08-24T04:31:52.232Z,18.90
2022-08-24T04:34:20.399Z,18.90
2022-08-24T04:36:48.790Z,18.90
2022-08-24T04:39:18.179Z,18.90
2022-08-24T04:41:46.295Z,18.90
2022-08-24T04:44:15.284Z,18.90
2022-08-24T04:46:43.452Z,18.90
2022-08-24T04:49:11.973Z,18.90
2022-08-24T04:51:40.063Z,18.90
2022-08-24T04:54:08.443Z,18.90
2022-08-24T04:56:38.204Z,18.90
2022-08-24T04:59:07.102Z,19.00
2022-08-24T05:01:35.599Z,19.00
2022-08-24T05:04:05.276Z,19.10
2022-08-24T05:06:34.819Z,19.10
2022-08-24T05:09:07.402Z,19.20
2022-08-24T05:11:40.374Z,19.20
2022-08-24T05:14:11.178Z,19.30
2022-08-24T05:16:39.535Z,19.30
2022-08-24T05:19:13.704Z,19.30
2022-08-24T05:21:44.304Z,19.40
2022-08-24T05:24:12.466Z,19.40
2022-08-24T05:26:42.319Z,19.50
2022-08-24T05:29:10.854Z,19.60
2022-08-24T05:31:39.601Z,19.70
2022-08-24T05:34:07.749Z,19.80
2022-08-24T05:36:38.472Z,19.90
2022-08-24T05:39:11.495Z,20.00
2022-08-24T05:41:44.177Z,20.10
2022-08-24T05:44:14.436Z,20.20
2022-08-24T05:46:43.268Z,20.30
2022-08-24T05:49:12.216Z,20.40
2022-08-24T05:51:42.371Z,20.50
2022-08-24T05:54:11.341Z,20.60
2022-08-24T05:56:39.479Z,20.70
2022-08-24T05:59:09.598Z,20.80
2022-08-24T06:01:40.308Z,20.80
2022-08-24T06:04:11.632Z,21.00
2022-08-24T06:06:39.776Z,21.10
2022-08-24T06:09:08.350Z,21.10
2022-08-24T06:11:39.190Z,21.30
2022-08-24T06:14:12.878Z,22.50
2022-08-24T06:16:43.391Z,24.70
2022-08-24T06:19:14.009Z,26.70
2022-08-24T06:21:43.037Z,28.10
2022-08-24T06:24:11.158Z,29.40
2022-08-24T06:26:56.557Z,30.40
2022-08-24T06:29:26.567Z,31.30
2022-08-24T06:31:56.110Z,31.40
2022-08-24T06:34:26.257Z,31.70
2022-08-24T06:36:54.494Z,32.20
2022-08-24T06:39:22.686Z,32.30
2022-08-24T06:41:50.781Z,32.40
2022-08-24T06:44:18.930Z,32.50
2022-08-24T06:46:48.431Z,32.90
2022-08-24T06:49:16.506Z,33.20
2022-08-24T06:51:47.487Z,33.70
2022-08-24T06:54:20.853Z,33.80
2022-08-24T06:56:48.945Z,33.80
2022-08-24T06:59:17.012Z,33.60
2022-08-24T07:01:45.166Z,33.70
2022-08-24T07:04:14.833Z,33.70
2022-08-24T07:06:42.992Z,33.80
2022-08-24T07:09:12.204Z,33.80
2022-08-24T07:11:40.536Z,33.80
2022-08-24T07:25:48.953Z,35.00
2022-08-24T07:28:18.900Z,35.60
2022-08-24T07:31:00.142Z,36.00
2022-08-24T07:33:28.292Z,35.70
2022-08-24T07:35:56.481Z,36.10
2022-08-24T07:38:24.563Z,36.80
2022-08-24T07:41:14.757Z,36.10
2022-08-24T07:43:43.175Z,36.10
2022-08-24T07:46:11.505Z,36.40
2022-08-24T07:48:39.610Z,36.80
2022-08-24T07:51:12.445Z,36.90
2022-08-24T07:53:53.044Z,37.10
2022-08-24T07:56:23.561Z,37.20
2022-08-24T07:58:54.408Z,37.40
2022-08-24T08:01:23.324Z,37.30
2022-08-24T08:03:51.901Z,37.40
2022-08-24T08:06:20.165Z,37.30
2022-08-24T08:08:48.458Z,37.70
2022-08-24T08:11:16.585Z,37.40
2022-08-24T08:13:46.613Z,37.40
2022-08-24T08:16:15.504Z,37.70
2022-08-24T08:18:45.498Z,37.20
2022-08-24T08:21:27.907Z,37.20
2022-08-24T08:24:14.912Z,38.00
2022-08-24T08:26:44.015Z,38.10
2022-08-24T08:29:14.607Z,38.00
2022-08-24T08:31:43.485Z,38.20
2022-08-24T08:34:14.144Z,38.10
2022-08-24T08:36:42.794Z,38.60
2022-08-24T08:39:12.776Z,39.70
2022-08-24T08:42:17.342Z,40.30
2022-08-24T08:45:12.611Z,38.20
2022-08-24T08:48:10.702Z,37.60
2022-08-24T08:50:58.302Z,37.30
2022-08-24T08:54:07.644Z,37.50
2022-08-24T08:56:41.742Z,37.40
2022-08-24T08:59:18.790Z,36.90
2022-08-24T09:02:01.645Z,36.70
2022-08-24T09:04:59.802Z,36.80
2022-08-24T09:07:38.785Z,38.10
2022-08-24T09:10:42.291Z,38.90
2022-08-24T09:13:35.564Z,38.00
2022-08-24T09:16:19.492Z,36.90
2022-08-24T09:19:01.032Z,37.00
2022-08-24T09:21:48.417Z,37.30
2022-08-24T09:28:34.652Z,36.90
2022-08-24T09:31:27.877Z,36.50
2022-08-24T09:34:09.434Z,36.50
2022-08-24T09:36:53.311Z,36.70
2022-08-24T09:39:45.756Z,36.90
2022-08-24T09:58:00.615Z,37.40
2022-08-24T10:00:34.218Z,36.20
2022-08-24T10:03:16.959Z,35.10
2022-08-24T10:06:03.486Z,34.00
2022-08-24T10:08:45.403Z,34.40
2022-08-24T10:11:23.120Z,34.70
2022-08-24T10:14:02.524Z,34.20
2022-08-24T10:16:41.672Z,34.00
2022-08-24T10:19:24.125Z,33.80
2022-08-24T10:22:03.839Z,33.70
2022-08-24T10:24:48.200Z,33.70
2022-08-24T10:27:37.520Z,33.50
2022-08-24T10:30:28.470Z,32.90
2022-08-24T10:33:11.423Z,32.50
2022-08-24T10:35:50.833Z,31.80
2022-08-24T10:38:47.247Z,31.20
2022-08-24T10:41:43.403Z,30.80
2022-08-24T10:44:28.561Z,30.80
2022-08-24T10:47:01.468Z,31.30
2022-08-24T10:50:11.564Z,31.60
2022-08-24T10:53:20.085Z,31.80
2022-08-24T10:55:58.561Z,32.20
2022-08-24T10:58:46.216Z,32.60
2022-08-24T11:01:18.423Z,32.70
2022-08-24T11:03:53.430Z,32.80
2022-08-24T11:06:23.055Z,32.70
2022-08-24T11:09:01.549Z,32.50
2022-08-24T11:11:33.657Z,32.90
2022-08-24T11:14:06.272Z,32.30
2022-08-24T11:16:39.875Z,32.10
2022-08-24T11:19:13.330Z,32.10
2022-08-24T11:21:49.133Z,32.00
2022-08-24T11:24:39.675Z,32.20
2022-08-24T11:27:19.682Z,31.70
2022-08-24T11:30:00.150Z,31.50
2022-08-24T11:32:31.285Z,31.80
2022-08-24T11:35:07.131Z,31.90
2022-08-24T11:37:37.747Z,32.00
2022-08-24T11:40:09.029Z,32.10
2022-08-24T11:43:05.989Z,32.10
2022-08-24T11:45:42.155Z,32.50
2022-08-24T11:48:28.513Z,32.60
2022-08-24T11:51:02.965Z,32.80
2022-08-24T11:56:21.537Z,32.80
2022-08-24T11:58:58.202Z,32.70
2022-08-24T12:05:27.319Z,32.60
2022-08-24T12:08:07.127Z,32.80
2022-08-24T12:10:45.718Z,32.60
2022-08-24T12:13:28.685Z,32.40
2022-08-24T12:16:06.236Z,32.30
2022-08-24T12:18:45.583Z,32.10
2022-08-24T12:21:15.720Z,32.00
2022-08-24T12:23:48.578Z,31.60
2022-08-24T12:26:26.256Z,31.60
2022-08-24T12:29:01.229Z,31.80
2022-08-24T12:31:39.448Z,32.00
2022-08-24T12:34:13.686Z,32.00
2022-08-24T12:36:50.479Z,32.30
2022-08-24T12:39:27.021Z,32.70
2022-08-24T12:42:06.643Z,32.70
2022-08-24T12:44:44.213Z,33.00
2022-08-24T12:47:13.499Z,33.10
2022-08-24T12:49:49.433Z,33.40
2022-08-24T12:52:49.066Z,33.50
2022-08-24T12:55:32.322Z,33.60
2022-08-24T13:00:57.484Z,33.80
2022-08-24T13:03:32.030Z,33.90
2022-08-24T13:06:04.540Z,34.00
2022-08-24T13:08:40.466Z,34.00
2022-08-24T13:11:14.736Z,34.10
2022-08-24T13:13:47.924Z,34.20
2022-08-24T13:16:45.686Z,33.70
2022-08-24T13:19:16.973Z,33.20
2022-08-24T13:21:48.873Z,33.30
2022-08-24T13:24:48.138Z,33.50
2022-08-24T13:28:02.582Z,33.90
2022-08-24T13:31:00.675Z,34.00
2022-08-24T13:33:35.085Z,33.90
2022-08-24T13:36:08.422Z,33.80
2022-08-24T13:38:59.582Z,33.60
2022-08-24T13:41:45.458Z,33.30
2022-08-24T13:44:23.360Z,33.30
2022-08-24T13:47:01.136Z,32.80
2022-08-24T13:49:46.176Z,32.70
2022-08-24T13:52:27.669Z,32.70
2022-08-24T13:55:10.492Z,32.70
2022-08-24T13:57:45.494Z,32.70
2022-08-24T14:00:42.788Z,32.40
2022-08-24T14:03:46.030Z,32.00
2022-08-24T14:06:28.671Z,31.90
2022-08-24T14:09:13.977Z,31.80
2022-08-24T14:11:57.131Z,31.50
2022-08-24T14:14:46.747Z,31.50
2022-08-24T14:17:43.559Z,31.40
2022-08-24T14:20:30.356Z,31.40
2022-08-24T14:23:07.060Z,31.50
2022-08-24T14:25:37.854Z,31.50
2022-08-24T14:28:35.725Z,31.40
2022-08-24T14:31:29.611Z,31.30
2022-08-24T14:34:14.124Z,31.20
2022-08-24T14:36:47.505Z,31.40
2022-08-24T14:39:32.049Z,31.50
2022-08-24T14:42:12.789Z,31.60
2022-08-24T14:44:53.154Z,31.40
2022-08-24T14:47:32.428Z,31.30
2022-08-24T14:50:12.976Z,31.40
2022-08-24T14:52:56.146Z,31.50
2022-08-24T14:55:32.170Z,31.80
2022-08-24T14:58:12.939Z,32.00
2022-08-24T15:01:06.374Z,32.10
2022-08-24T15:03:52.201Z,32.00
2022-08-24T15:06:27.843Z,32.00
2022-08-24T15:09:08.660Z,32.20
2022-08-24T15:11:40.568Z,32.10
2022-08-24T15:26:23.733Z,31.50
2022-08-24T15:28:56.953Z,31.70
2022-08-24T15:31:28.880Z,31.70
2022-08-24T15:33:59.120Z,31.50
2022-08-24T15:36:30.059Z,31.50
2022-08-24T15:38:58.313Z,31.30
2022-08-24T15:41:31.197Z,31.40
2022-08-24T15:44:05.354Z,31.60
2022-08-24T15:46:37.187Z,31.60
2022-08-24T15:49:13.962Z,31.50
2022-08-24T15:51:51.847Z,31.50
2022-08-24T15:54:33.207Z,31.40
2022-08-24T15:57:03.569Z,31.30
2022-08-24T15:59:46.801Z,31.20
2022-08-24T16:02:26.362Z,31.20
2022-08-24T16:05:14.343Z,31.40
2022-08-24T16:08:10.617Z,31.40
2022-08-24T16:10:42.430Z,31.40
2022-08-24T16:13:23.630Z,31.20
2022-08-24T16:15:59.045Z,31.20
2022-08-24T16:18:42.589Z,31.10
2022-08-24T16:21:16.840Z,31.20
2022-08-24T16:23:55.538Z,31.10
2022-08-24T16:26:27.694Z,31.20
2022-08-24T16:28:58.136Z,31.20
2022-08-24T16:31:49.392Z,31.10
2022-08-24T16:34:24.958Z,31.20
2022-08-24T16:36:53.095Z,31.40
2022-08-24T16:39:21.348Z,31.30
2022-08-24T16:41:50.068Z,31.20
2022-08-24T16:44:18.614Z,31.20
2022-08-24T16:46:48.355Z,31.20
2022-08-24T16:53:06.934Z,31.10
2022-08-24T16:55:35.079Z,31.20
2022-08-24T16:58:03.489Z,31.20
2022-08-24T17:00:31.808Z,31.30
2022-08-24T17:03:01.267Z,31.30
2022-08-24T17:05:29.693Z,31.30
2022-08-24T17:07:59.705Z,31.30
2022-08-24T17:10:27.899Z,31.20
2022-08-24T17:12:56.104Z,31.10
2022-08-24T17:15:24.723Z,31.00
2022-08-24T17:17:57.494Z,31.00
2022-08-24T17:20:27.156Z,30.90
2022-08-24T17:22:55.350Z,30.90
2022-08-24T17:25:23.600Z,30.80
2022-08-24T17:27:54.447Z,30.80
2022-08-24T17:30:24.125Z,30.80
2022-08-24T17:32:52.801Z,30.70
2022-08-24T17:35:22.008Z,30.60
2022-08-24T17:37:53.818Z,30.50
2022-08-24T17:40:27.763Z,30.40
2022-08-24T17:42:56.110Z,30.40
2022-08-24T17:45:24.455Z,30.30
2022-08-24T17:47:53.779Z,30.20
2022-08-24T17:50:24.260Z,30.20
2022-08-24T17:52:56.239Z,30.10
2022-08-24T17:55:29.301Z,30.00
2022-08-24T17:57:58.099Z,30.00
2022-08-24T18:00:26.327Z,29.90
2022-08-24T18:02:54.472Z,29.80
2022-08-24T18:05:22.916Z,29.80
2022-08-24T18:07:55.140Z,29.70
2022-08-24T18:10:26.266Z,29.70
2022-08-24T18:12:54.541Z,29.60
2022-08-24T18:15:31.104Z,29.60
2022-08-24T18:18:08.537Z,29.50
2022-08-24T18:20:40.347Z,29.40
2022-08-24T18:23:11.972Z,29.40
2022-08-24T18:25:45.807Z,29.30
2022-08-24T18:28:15.228Z,29.20
2022-08-24T18:30:44.087Z,29.20
2022-08-24T18:33:12.273Z,29.10
2022-08-24T18:35:40.447Z,29.10
2022-08-24T18:38:09.959Z,29.00
2022-08-24T18:40:38.205Z,29.00
2022-08-24T18:43:06.570Z,28.90
2022-08-24T18:45:35.399Z,28.90
2022-08-24T18:48:03.918Z,28.80
2022-08-24T18:50:33.363Z,28.80
2022-08-24T18:53:02.158Z,28.70
2022-08-24T18:55:31.850Z,28.70
2022-08-24T18:58:00.359Z,28.60
2022-08-24T19:00:28.645Z,28.50
2022-08-24T19:02:59.365Z,28.40
2022-08-24T19:05:27.561Z,28.30
2022-08-24T19:07:55.716Z,28.10
2022-08-24T19:10:27.636Z,28.00
2022-08-24T19:12:59.889Z,27.80
2022-08-24T19:15:29.356Z,27.70
2022-08-24T19:18:09.783Z,27.60
2022-08-24T19:20:43.487Z,27.50
2022-08-24T19:23:20.213Z,27.50
2022-08-24T19:25:49.484Z,27.50
2022-08-24T19:28:19.111Z,27.30
2022-08-24T19:30:48.903Z,27.20
2022-08-24T19:33:24.274Z,27.20
2022-08-24T19:35:53.114Z,27.20
2022-08-24T19:38:25.404Z,27.20
2022-08-24T19:40:55.436Z,27.20
2022-08-24T19:43:26.829Z,27.20
2022-08-24T19:46:06.270Z,27.20
2022-08-24T19:48:36.571Z,27.20
2022-08-24T19:51:06.019Z,27.10
2022-08-24T19:53:36.942Z,27.20
2022-08-24T19:56:06.623Z,27.10
2022-08-24T19:58:44.285Z,27.00
2022-08-24T20:01:15.449Z,27.00
2022-08-24T20:03:43.618Z,26.90
2022-08-24T20:06:12.494Z,26.90
2022-08-24T20:08:41.328Z,26.80
2022-08-24T20:11:10.015Z,26.80
2022-08-24T20:13:39.898Z,26.70
2022-08-24T20:16:10.722Z,26.70
2022-08-24T20:18:40.106Z,26.60
2022-08-24T20:21:08.627Z,26.50
2022-08-24T20:23:37.000Z,26.50
2022-08-24T20:26:07.126Z,26.40
2022-08-24T20:28:40.663Z,26.40
2022-08-24T20:31:11.145Z,26.30
2022-08-24T20:33:39.641Z,26.30
2022-08-24T20:36:09.949Z,26.20
2022-08-24T20:38:38.048Z,26.20
2022-08-24T20:41:06.396Z,26.20
2022-08-24T20:43:34.654Z,26.10
2022-08-24T20:46:02.788Z,26.00
2022-08-24T20:48:34.013Z,26.00
2022-08-24T20:51:02.623Z,25.90
2022-08-24T20:53:31.090Z,25.90
2022-08-24T20:56:04.419Z,25.90
2022-08-24T20:58:32.754Z,25.80
2022-08-24T21:01:00.900Z,25.80
2022-08-24T21:03:29.134Z,25.70
2022-08-24T21:06:00.210Z,25.70
2022-08-24T21:08:28.494Z,25.70
2022-08-24T21:10:56.691Z,25.70
2022-08-24T21:13:24.717Z,25.70
2022-08-24T21:15:53.003Z,25.60
2022-08-24T21:18:21.481Z,25.60
2022-08-24T21:21:04.032Z,25.50
2022-08-24T21:23:35.116Z,25.50
2022-08-24T21:26:04.762Z,25.40
2022-08-24T21:28:33.487Z,25.30
2022-08-24T21:31:05.889Z,25.30
2022-08-24T21:33:52.064Z,25.30
2022-08-24T21:36:23.407Z,25.30
2022-08-24T21:38:54.415Z,25.20
2022-08-24T21:41:23.015Z,25.20
2022-08-24T21:43:51.663Z,25.20
2022-08-24T21:46:19.839Z,25.20
2022-08-24T21:48:48.278Z,25.10
2022-08-24T21:51:16.389Z,25.10
2022-08-24T21:53:44.532Z,25.10
2022-08-24T21:56:14.476Z,25.00
2022-08-24T21:58:45.495Z,25.00
2022-08-24T22:01:16.246Z,25.00
2022-08-24T22:03:44.391Z,24.90
2022-08-24T22:06:13.728Z,25.00
2022-08-24T22:08:43.947Z,24.90
2022-08-24T22:11:15.760Z,24.90
2022-08-24T22:13:43.934Z,24.90
2022-08-24T22:16:13.319Z,24.80
2022-08-24T22:18:42.092Z,24.80
2022-08-24T22:21:12.657Z,24.80
2022-08-24T22:23:41.809Z,24.70
2022-08-24T22:26:10.505Z,24.70
2022-08-24T22:28:41.759Z,24.70
2022-08-24T22:31:17.396Z,24.60
2022-08-24T22:33:45.945Z,24.60
2022-08-24T22:36:14.859Z,24.50
2022-08-24T22:38:43.018Z,24.50
2022-08-24T22:41:11.738Z,24.60
2022-08-24T22:43:58.831Z,24.60
2022-08-24T22:46:27.195Z,24.50
2022-08-24T22:48:55.571Z,24.50
2022-08-24T22:51:24.068Z,24.40
2022-08-24T22:53:52.516Z,24.40
2022-08-24T22:56:22.658Z,24.40
2022-08-24T22:58:52.758Z,24.40
2022-08-24T23:01:22.939Z,24.30
2022-08-24T23:03:52.296Z,24.30
2022-08-24T23:06:20.661Z,24.30
2022-08-24T23:08:48.772Z,24.30
2022-08-24T23:11:18.205Z,24.30
2022-08-24T23:13:46.580Z,24.20
2022-08-24T23:16:16.082Z,24.20
2022-08-24T23:19:01.721Z,24.20
2022-08-24T23:21:30.009Z,24.20
2022-08-24T23:23:58.098Z,24.20
2022-08-24T23:26:26.484Z,24.10
2022-08-24T23:28:54.840Z,24.10
2022-08-24T23:31:24.431Z,24.00
2022-08-24T23:33:53.699Z,24.00
2022-08-24T23:36:23.673Z,24.00
2022-08-24T23:38:54.084Z,23.90
2022-08-24T23:41:26.791Z,23.90
2022-08-24T23:43:55.698Z,23.80
2022-08-24T23:46:25.278Z,23.80
2022-08-24T23:48:55.828Z,23.70
2022-08-24T23:51:25.656Z,23.70
2022-08-24T23:53:54.011Z,23.70
2022-08-24T23:56:26.214Z,23.60
2022-08-24T23:58:54.501Z,23.60
